createdAt,value
2022-10-18T00:01:43.414Z,41.16
2022-10-18T00:04:13.508Z,41.01
2022-10-18T00:06:43.941Z,41.49
2022-10-18T00:09:14.493Z,41.39
2022-10-18T00:11:44.959Z,41.07
2022-10-18T00:14:17.413Z,41.08
2022-10-18T00:16:48.008Z,40.79
2022-10-18T00:19:18.613Z,41.33
2022-10-18T00:21:49.023Z,41.02
2022-10-18T00:24:18.775Z,41.20
2022-10-18T00:26:49.049Z,41.46
2022-10-18T00:29:21.027Z,41.51
2022-10-18T00:31:51.429Z,41.01
2022-10-18T00:34:21.786Z,41.05
2022-10-18T00:36:51.904Z,41.25
2022-10-18T00:39:24.337Z,41.26
2022-10-18T00:41:54.572Z,41.19
2022-10-18T00:45:15.277Z,41.03
2022-10-18T00:47:48.037Z,41.35
2022-10-18T00:50:18.785Z,41.40
2022-10-18T00:52:55.040Z,41.34
2022-10-18T00:55:25.410Z,41.18
2022-10-18T00:57:56.983Z,41.58
2022-10-18T01:00:29.318Z,41.35
2022-10-18T01:03:00.784Z,41.19
2022-10-18T01:05:31.221Z,41.23
2022-10-18T01:08:44.366Z,41.46
2022-10-18T01:11:47.996Z,41.37
2022-10-18T01:14:36.378Z,41.45
2022-10-18T01:17:21.586Z,41.04
2022-10-18T01:20:36.569Z,41.75
2022-10-18T01:23:13.534Z,41.16
2022-10-18T01:25:58.705Z,41.46
2022-10-18T01:28:51.678Z,41.04
2022-10-18T01:31:29.010Z,40.99
2022-10-18T01:34:04.524Z,41.50
2022-10-18T01:36:37.909Z,41.25
2022-10-18T01:39:14.835Z,41.08
2022-10-18T01:41:48.055Z,41.48
2022-10-18T01:44:25.937Z,41.48
2022-10-18T01:47:00.311Z,41.62
2022-10-18T01:49:30.602Z,41.67
2022-10-18T01:52:00.886Z,41.62
2022-10-18T01:54:37.044Z,41.58
2022-10-18T01:57:15.189Z,41.57
2022-10-18T01:59:58.836Z,41.40
2022-10-18T02:02:49.509Z,41.27
2022-10-18T02:05:32.755Z,41.16
2022-10-18T02:08:22.878Z,41.65
2022-10-18T02:10:59.600Z,41.50
2022-10-18T02:13:38.596Z,41.27
2022-10-18T02:16:15.440Z,41.69
2022-10-18T02:18:53.072Z,41.65
2022-10-18T02:21:27.365Z,41.81
2022-10-18T02:24:01.595Z,41.35
2022-10-18T02:26:32.629Z,41.68
2022-10-18T02:29:03.378Z,41.58
2022-10-18T02:31:41.842Z,42.04
2022-10-18T02:34:23.407Z,41.77
2022-10-18T02:36:57.802Z,41.62
2022-10-18T02:39:33.950Z,41.65
2022-10-18T02:42:07.234Z,41.63
2022-10-18T02:44:38.117Z,42.05
2022-10-18T02:47:12.580Z,41.83
2022-10-18T02:49:44.351Z,41.68
2022-10-18T02:52:14.594Z,41.95
2022-10-18T02:54:44.906Z,41.50
2022-10-18T02:57:14.551Z,41.76
2022-10-18T02:59:44.250Z,41.97
2022-10-18T03:02:14.385Z,41.54
2022-10-18T03:04:46.539Z,41.96
2022-10-18T03:07:16.332Z,41.58
2022-10-18T03:09:46.599Z,41.94
2022-10-18T03:12:16.951Z,42.02
2022-10-18T03:14:47.293Z,42.08
2022-10-18T03:17:17.682Z,41.92
2022-10-18T03:19:49.912Z,41.58
2022-10-18T03:22:19.706Z,41.86
2022-10-18T03:24:50.054Z,41.90
2022-10-18T03:27:20.324Z,42.18
2022-10-18T03:29:50.491Z,42.02
2022-10-18T03:32:20.758Z,41.79
2022-10-18T03:34:53.025Z,42.09
2022-10-18T03:37:24.008Z,41.68
2022-10-18T03:39:54.359Z,41.84
2022-10-18T03:42:24.348Z,42.11
2022-10-18T03:44:54.822Z,41.68
2022-10-18T03:47:24.978Z,42.35
2022-10-18T03:49:57.544Z,42.27
2022-10-18T03:52:27.440Z,41.92
2022-10-18T03:54:57.261Z,42.04
2022-10-18T03:57:27.798Z,41.94
2022-10-18T03:59:57.511Z,42.09
2022-10-18T04:02:28.195Z,42.23
2022-10-18T04:05:00.559Z,42.15
2022-10-18T04:07:30.641Z,42.22
2022-10-18T04:10:00.666Z,42.54
2022-10-18T04:12:31.181Z,42.15
2022-10-18T04:15:01.603Z,42.10
2022-10-18T04:17:31.878Z,42.72
2022-10-18T04:20:04.130Z,42.19
2022-10-18T04:22:34.431Z,42.38
2022-10-18T04:25:04.469Z,42.43
2022-10-18T04:27:34.910Z,42.48
2022-10-18T04:30:04.737Z,42.86
2022-10-18T04:32:35.966Z,42.88
2022-10-18T04:35:09.979Z,43.19
2022-10-18T04:37:40.278Z,42.80
2022-10-18T04:40:12.207Z,42.84
2022-10-18T04:42:42.590Z,43.00
2022-10-18T04:45:13.809Z,42.88
2022-10-18T04:47:44.070Z,42.88
2022-10-18T04:50:15.185Z,43.20
2022-10-18T04:52:45.440Z,43.04
2022-10-18T04:55:15.731Z,43.37
2022-10-18T04:57:46.126Z,42.95
2022-10-18T05:00:17.926Z,43.58
2022-10-18T05:02:48.251Z,43.19
2022-10-18T05:05:20.764Z,43.44
2022-10-18T05:07:50.873Z,43.51
2022-10-18T05:10:21.047Z,43.50
2022-10-18T05:12:51.451Z,42.94
2022-10-18T05:15:21.561Z,43.48
2022-10-18T05:17:51.763Z,43.31
2022-10-18T05:20:23.735Z,43.32
2022-10-18T05:22:54.077Z,43.11
2022-10-18T05:25:24.356Z,43.21
2022-10-18T05:27:54.928Z,43.45
2022-10-18T05:30:27.012Z,42.86
2022-10-18T05:32:57.098Z,43.37
2022-10-18T05:35:29.117Z,43.10
2022-10-18T05:37:58.988Z,43.00
2022-10-18T05:40:29.132Z,43.54
2022-10-18T05:42:59.536Z,42.93
2022-10-18T05:45:29.873Z,43.30
2022-10-18T05:48:00.728Z,43.26
2022-10-18T05:50:35.483Z,43.15
2022-10-18T05:53:12.343Z,43.25
2022-10-18T05:55:42.561Z,42.86
2022-10-18T05:58:12.496Z,43.05
2022-10-18T06:00:42.476Z,42.73
2022-10-18T06:03:13.112Z,42.72
2022-10-18T06:05:44.893Z,42.58
2022-10-18T06:08:14.505Z,43.03
2022-10-18T06:10:44.414Z,42.44
2022-10-18T06:13:14.568Z,42.57
2022-10-18T06:15:44.933Z,42.80
2022-10-18T06:18:14.643Z,42.43
2022-10-18T06:20:46.603Z,42.20
2022-10-18T06:23:16.971Z,42.32
2022-10-18T06:25:46.875Z,42.47
2022-10-18T06:28:16.945Z,42.08
2022-10-18T06:30:47.624Z,42.02
2022-10-18T06:33:17.162Z,41.96
2022-10-18T06:35:58.762Z,42.00
2022-10-18T06:38:29.672Z,42.48
2022-10-18T06:41:01.935Z,41.76
2022-10-18T06:43:32.388Z,41.57
2022-10-18T06:46:05.606Z,41.47
2022-10-18T06:48:36.244Z,41.93
2022-10-18T06:51:10.497Z,41.84
2022-10-18T06:53:44.322Z,41.41
2022-10-18T06:56:23.725Z,41.73
2022-10-18T06:58:53.950Z,41.36
2022-10-18T07:01:24.946Z,41.20
2022-10-18T07:03:56.620Z,40.85
2022-10-18T07:06:28.909Z,40.84
2022-10-18T07:08:59.335Z,41.19
2022-10-18T07:11:30.185Z,40.55
2022-10-18T07:14:05.327Z,41.08
2022-10-18T07:16:36.969Z,40.82
2022-10-18T07:19:06.948Z,40.07
2022-10-18T07:21:39.082Z,40.74
2022-10-18T07:24:09.206Z,39.88
2022-10-18T07:26:39.914Z,40.11
2022-10-18T07:29:14.094Z,40.16
2022-10-18T07:31:45.657Z,39.92
2022-10-18T07:34:16.804Z,40.35
2022-10-18T07:36:52.867Z,39.76
2022-10-18T07:39:23.297Z,40.12
2022-10-18T07:41:53.148Z,39.57
2022-10-18T07:44:23.634Z,39.92
2022-10-18T07:46:53.591Z,39.22
2022-10-18T07:49:24.310Z,39.17
2022-10-18T07:51:56.548Z,39.65
2022-10-18T07:54:26.455Z,39.87
2022-10-18T07:56:58.882Z,39.44
2022-10-18T07:59:29.067Z,39.82
2022-10-18T08:01:59.053Z,39.41
2022-10-18T08:04:29.026Z,38.93
2022-10-18T08:07:00.886Z,39.42
2022-10-18T08:09:32.138Z,39.27
2022-10-18T08:12:03.066Z,39.25
2022-10-18T08:14:33.459Z,38.57
2022-10-18T08:17:03.739Z,39.11
2022-10-18T08:19:33.452Z,39.07
2022-10-18T08:22:05.775Z,38.86
2022-10-18T08:24:36.011Z,39.10
2022-10-18T08:27:06.373Z,39.12
2022-10-18T08:29:36.648Z,39.26
2022-10-18T08:32:08.313Z,39.15
2022-10-18T08:37:16.256Z,38.68
2022-10-18T08:39:46.482Z,39.07
2022-10-18T08:42:39.392Z,38.48
2022-10-18T08:45:37.471Z,38.79
2022-10-18T08:48:19.391Z,38.32
2022-10-18T08:50:52.815Z,38.69
2022-10-18T08:53:37.763Z,38.09
2022-10-18T08:56:15.572Z,38.37
2022-10-18T08:58:46.841Z,38.29
2022-10-18T09:01:41.971Z,38.59
2022-10-18T09:04:43.279Z,38.61
2022-10-18T09:07:30.226Z,38.49
2022-10-18T09:10:16.492Z,37.90
2022-10-18T09:13:33.034Z,37.84
2022-10-18T09:16:07.284Z,37.89
2022-10-18T09:18:59.013Z,38.57
2022-10-18T09:21:47.395Z,37.90
2022-10-18T09:24:27.491Z,38.03
2022-10-18T09:27:11.752Z,38.04
2022-10-18T09:30:01.087Z,38.17
2022-10-18T09:32:50.225Z,38.31
2022-10-18T09:35:26.725Z,38.37
2022-10-18T09:38:05.900Z,37.85
2022-10-18T09:40:49.086Z,37.71
2022-10-18T09:43:27.915Z,37.71
2022-10-18T09:45:59.566Z,38.36
2022-10-18T09:48:36.895Z,38.29
2022-10-18T09:51:13.576Z,37.63
2022-10-18T09:53:54.012Z,38.28
2022-10-18T09:56:33.867Z,37.64
2022-10-18T09:59:08.332Z,38.09
2022-10-18T10:01:39.054Z,38.32
2022-10-18T10:04:10.471Z,37.49
2022-10-18T10:06:42.375Z,37.54
2022-10-18T10:09:19.898Z,38.17
2022-10-18T10:11:52.340Z,37.69
2022-10-18T10:14:27.157Z,38.08
2022-10-18T10:17:00.095Z,38.12
2022-10-18T10:19:36.713Z,38.21
2022-10-18T10:22:11.746Z,38.15
2022-10-18T10:24:51.873Z,37.51
2022-10-18T10:27:32.420Z,37.52
2022-10-18T10:30:07.475Z,38.11
2022-10-18T10:32:50.808Z,37.87
2022-10-18T10:38:29.259Z,38.24
2022-10-18T10:41:00.479Z,38.02
2022-10-18T10:43:38.677Z,38.05
2022-10-18T10:46:15.487Z,37.84
2022-10-18T10:49:00.611Z,37.84
2022-10-18T10:51:50.586Z,37.95
2022-10-18T10:54:35.719Z,37.97
2022-10-18T10:57:19.221Z,37.98
2022-10-18T10:59:52.693Z,38.10
2022-10-18T11:02:32.867Z,38.42
2022-10-18T11:05:26.474Z,37.97
2022-10-18T11:08:02.827Z,38.02
2022-10-18T11:10:41.071Z,37.90
2022-10-18T11:13:27.116Z,38.17
2022-10-18T11:16:07.022Z,38.62
2022-10-18T11:18:41.414Z,38.66
2022-10-18T11:21:20.066Z,38.63
2022-10-18T11:23:50.768Z,38.07
2022-10-18T11:26:43.705Z,38.26
2022-10-18T11:29:41.107Z,38.25
2022-10-18T11:32:29.369Z,38.74
2022-10-18T11:35:23.642Z,38.71
2022-10-18T11:38:13.943Z,38.20
2022-10-18T11:41:16.874Z,38.40
2022-10-18T11:44:02.322Z,38.83
2022-10-18T11:46:57.220Z,38.41
2022-10-18T11:50:05.638Z,38.28
2022-10-18T11:52:50.305Z,38.79
2022-10-18T11:55:40.667Z,38.40
2022-10-18T11:58:39.050Z,38.91
2022-10-18T12:01:26.150Z,38.21
2022-10-18T12:04:10.588Z,38.21
2022-10-18T12:06:44.185Z,38.74
2022-10-18T12:09:26.968Z,38.14
2022-10-18T12:12:03.716Z,38.79
2022-10-18T12:14:42.079Z,38.32
2022-10-18T12:17:51.358Z,38.29
2022-10-18T12:20:20.641Z,38.83
2022-10-18T12:23:01.678Z,38.69
2022-10-18T12:25:40.348Z,38.36
2022-10-18T12:28:25.083Z,38.31
2022-10-18T12:31:04.888Z,38.79
2022-10-18T12:33:44.693Z,38.30
2022-10-18T12:36:37.438Z,38.42
2022-10-18T12:39:28.985Z,38.98
2022-10-18T12:42:25.229Z,39.16
2022-10-18T12:45:07.741Z,38.38
2022-10-18T12:47:38.424Z,38.40
2022-10-18T12:50:29.431Z,38.77
2022-10-18T12:53:18.099Z,38.42
2022-10-18T12:55:52.136Z,38.52
2022-10-18T12:58:43.024Z,38.95
2022-10-18T13:01:13.463Z,38.65
2022-10-18T13:04:04.394Z,38.51
2022-10-18T13:07:23.944Z,38.63
2022-10-18T13:10:43.017Z,38.63
2022-10-18T13:13:59.267Z,38.82
2022-10-18T13:16:44.826Z,38.73
2022-10-18T13:19:27.210Z,39.24
2022-10-18T13:22:25.442Z,39.04
2022-10-18T13:25:07.056Z,38.53
2022-10-18T13:27:50.261Z,38.54
2022-10-18T13:30:56.845Z,39.26
2022-10-18T13:33:35.302Z,38.82
2022-10-18T13:36:08.948Z,39.04
2022-10-18T13:39:02.567Z,38.82
2022-10-18T13:41:57.478Z,39.05
2022-10-18T13:44:32.284Z,38.87
2022-10-18T13:47:38.601Z,38.85
2022-10-18T13:50:33.350Z,38.96
2022-10-18T13:53:48.223Z,39.18
2022-10-18T13:56:53.793Z,38.92
2022-10-18T13:59:47.930Z,38.63
2022-10-18T14:02:59.754Z,39.13
2022-10-18T14:05:53.315Z,39.11
2022-10-18T14:08:37.560Z,39.01
2022-10-18T14:11:21.538Z,39.28
2022-10-18T14:13:58.703Z,38.77
2022-10-18T14:16:39.437Z,39.28
2022-10-18T14:19:24.315Z,39.28
2022-10-18T14:22:06.970Z,39.20
2022-10-18T14:24:38.239Z,39.22
2022-10-18T14:27:28.201Z,39.19
2022-10-18T14:30:17.599Z,39.50
2022-10-18T14:32:50.320Z,39.22
2022-10-18T14:35:33.738Z,39.00
2022-10-18T14:38:06.336Z,38.89
2022-10-18T14:40:40.802Z,39.38
2022-10-18T14:43:16.288Z,39.42
2022-10-18T14:45:46.730Z,38.92
2022-10-18T14:48:20.122Z,39.08
2022-10-18T14:51:01.185Z,39.48
2022-10-18T14:53:39.999Z,39.60
2022-10-18T14:56:23.282Z,39.29
2022-10-18T14:58:54.938Z,39.06
2022-10-18T15:01:30.086Z,38.95
2022-10-18T15:04:04.512Z,39.19
2022-10-18T15:06:36.747Z,39.11
2022-10-18T15:09:08.113Z,39.12
2022-10-18T15:11:38.814Z,39.17
2022-10-18T15:14:18.321Z,39.81
2022-10-18T15:16:51.295Z,39.35
2022-10-18T15:19:34.813Z,39.75
2022-10-18T15:25:20.016Z,39.78
2022-10-18T15:27:53.373Z,39.34
2022-10-18T15:30:29.351Z,39.81
2022-10-18T15:33:04.099Z,39.48
2022-10-18T15:35:37.627Z,39.57
2022-10-18T15:38:28.753Z,40.07
2022-10-18T15:40:58.896Z,39.80
2022-10-18T15:43:39.646Z,39.47
2022-10-18T15:46:32.421Z,39.50
2022-10-18T15:49:53.295Z,39.67
2022-10-18T15:52:38.785Z,40.00
2022-10-18T15:55:51.085Z,39.51
2022-10-18T15:58:27.580Z,40.08
2022-10-18T16:01:02.375Z,40.25
2022-10-18T16:03:36.286Z,39.90
2022-10-18T16:06:11.359Z,40.04
2022-10-18T16:08:45.904Z,39.75
2022-10-18T16:11:20.860Z,40.03
2022-10-18T16:13:54.019Z,40.15
2022-10-18T16:16:30.441Z,40.11
2022-10-18T16:19:01.283Z,40.10
2022-10-18T16:21:34.086Z,40.29
2022-10-18T16:24:04.851Z,40.28
2022-10-18T16:26:37.475Z,39.64
2022-10-18T16:29:08.950Z,39.98
2022-10-18T16:31:39.280Z,39.66
2022-10-18T16:34:11.532Z,40.19
2022-10-18T16:36:41.952Z,40.23
2022-10-18T16:39:20.001Z,39.69
2022-10-18T16:41:56.369Z,39.75
2022-10-18T16:44:26.802Z,40.02
2022-10-18T16:46:57.281Z,40.33
2022-10-18T16:49:29.166Z,40.47
2022-10-18T16:51:59.831Z,39.91
2022-10-18T16:54:29.836Z,39.88
2022-10-18T16:57:02.642Z,40.35
2022-10-18T16:59:34.070Z,40.35
2022-10-18T17:02:09.248Z,40.60
2022-10-18T17:04:39.154Z,40.06
2022-10-18T17:07:10.630Z,40.27
2022-10-18T17:09:40.540Z,39.91
2022-10-18T17:12:12.141Z,40.50
2022-10-18T17:14:53.679Z,40.22
2022-10-18T17:17:23.970Z,40.60
2022-10-18T17:19:53.959Z,40.36
2022-10-18T17:22:24.660Z,40.43
2022-10-18T17:24:55.085Z,40.30
2022-10-18T17:27:28.144Z,40.85
2022-10-18T17:29:58.105Z,40.66
2022-10-18T17:32:28.552Z,40.11
2022-10-18T17:34:59.195Z,40.69
2022-10-18T17:37:29.849Z,40.48
2022-10-18T17:39:59.960Z,40.28
2022-10-18T17:42:31.820Z,40.44
2022-10-18T17:45:02.295Z,40.33
2022-10-18T17:47:32.869Z,40.31
2022-10-18T17:50:03.302Z,40.28
2022-10-18T17:52:33.631Z,40.34
2022-10-18T17:55:04.398Z,40.56
2022-10-18T17:57:36.547Z,40.27
2022-10-18T18:00:16.038Z,40.38
2022-10-18T18:02:47.226Z,41.06
2022-10-18T18:05:17.743Z,40.43
2022-10-18T18:07:48.147Z,40.75
2022-10-18T18:10:18.923Z,40.51
2022-10-18T18:12:51.373Z,40.51
2022-10-18T18:15:21.449Z,40.70
2022-10-18T18:17:58.619Z,40.59
2022-10-18T18:20:28.618Z,40.50
2022-10-18T18:22:58.944Z,41.04
2022-10-18T18:25:29.380Z,40.70
2022-10-18T18:28:05.111Z,40.94
2022-10-18T18:30:54.429Z,41.02
2022-10-18T18:33:24.549Z,41.12
2022-10-18T18:35:59.187Z,41.11
2022-10-18T18:38:29.899Z,40.88
2022-10-18T18:41:09.120Z,41.03
2022-10-18T18:43:43.554Z,40.95
2022-10-18T18:46:14.973Z,40.52
2022-10-18T18:48:45.592Z,40.64
2022-10-18T18:51:18.096Z,40.69
2022-10-18T18:53:49.716Z,40.97
2022-10-18T18:56:23.174Z,41.07
2022-10-18T18:58:57.183Z,40.70
2022-10-18T19:01:30.222Z,40.91
2022-10-18T19:04:02.029Z,41.31
2022-10-18T19:06:37.044Z,41.03
2022-10-18T19:09:13.617Z,40.75
2022-10-18T19:11:43.803Z,40.84
2022-10-18T19:14:16.727Z,41.34
2022-10-18T19:16:51.115Z,40.89
2022-10-18T19:19:24.631Z,41.08
2022-10-18T19:21:57.321Z,40.95
2022-10-18T19:24:30.548Z,41.20
2022-10-18T19:27:03.368Z,40.88
2022-10-18T19:29:38.888Z,40.90
2022-10-18T19:32:13.693Z,40.78
2022-10-18T19:34:43.965Z,41.50
2022-10-18T19:37:15.775Z,40.87
2022-10-18T19:39:46.154Z,41.27
2022-10-18T19:42:20.499Z,41.23
2022-10-18T19:44:56.532Z,41.29
2022-10-18T19:47:27.003Z,40.75
2022-10-18T19:49:57.239Z,41.26
2022-10-18T19:52:28.872Z,41.38
2022-10-18T19:54:58.736Z,41.18
2022-10-18T19:57:29.333Z,41.14
2022-10-18T20:00:02.640Z,41.27
2022-10-18T20:02:35.312Z,41.43
2022-10-18T20:05:05.862Z,41.57
2022-10-18T20:07:36.863Z,41.36
2022-10-18T20:10:07.994Z,41.19
2022-10-18T20:12:38.635Z,41.36
2022-10-18T20:15:13.527Z,41.53
2022-10-18T20:17:43.710Z,41.69
2022-10-18T20:20:14.662Z,41.50
2022-10-18T20:22:44.469Z,41.51
2022-10-18T20:25:14.842Z,41.62
2022-10-18T20:27:45.448Z,40.95
2022-10-18T20:30:17.071Z,41.31
2022-10-18T20:32:47.056Z,41.09
2022-10-18T20:35:17.677Z,41.04
2022-10-18T20:37:48.350Z,41.26
2022-10-18T20:40:19.459Z,41.57
2022-10-18T20:42:49.934Z,41.14
2022-10-18T20:45:22.284Z,41.48
2022-10-18T20:47:52.488Z,41.30
2022-10-18T20:50:22.710Z,41.38
2022-10-18T20:52:52.894Z,41.49
2022-10-18T20:55:22.455Z,41.62
2022-10-18T20:57:52.891Z,41.54
2022-10-18T21:00:25.611Z,41.22
2022-10-18T21:02:56.080Z,41.82
2022-10-18T21:05:27.532Z,41.69
2022-10-18T21:07:57.942Z,41.91
2022-10-18T21:10:28.699Z,41.18
2022-10-18T21:12:59.334Z,41.50
2022-10-18T21:15:33.360Z,41.60
2022-10-18T21:18:03.696Z,41.49
2022-10-18T21:20:34.119Z,41.93
2022-10-18T21:23:04.759Z,41.32
2022-10-18T21:25:35.124Z,41.88
2022-10-18T21:28:05.358Z,41.90
2022-10-18T21:30:37.918Z,41.45
2022-10-18T21:33:09.457Z,41.31
2022-10-18T21:35:40.806Z,41.56
2022-10-18T21:38:11.466Z,41.94
2022-10-18T21:40:44.912Z,41.40
2022-10-18T21:43:14.600Z,41.42
2022-10-18T21:45:46.563Z,41.48
2022-10-18T21:48:16.822Z,41.83
2022-10-18T21:50:47.212Z,41.83
2022-10-18T21:53:17.118Z,41.45
2022-10-18T21:55:47.969Z,41.91
2022-10-18T21:58:18.015Z,41.84
2022-10-18T22:00:49.985Z,41.68
2022-10-18T22:03:23.624Z,41.35
2022-10-18T22:06:01.807Z,41.39
2022-10-18T22:08:33.217Z,41.55
2022-10-18T22:11:04.060Z,41.49
2022-10-18T22:13:34.327Z,42.00
2022-10-18T22:16:09.694Z,41.74
2022-10-18T22:18:40.232Z,41.83
2022-10-18T22:21:13.664Z,41.86
2022-10-18T22:23:46.791Z,41.93
2022-10-18T22:26:20.796Z,41.84
2022-10-18T22:28:55.888Z,42.22
2022-10-18T22:31:30.868Z,41.69
2022-10-18T22:34:03.645Z,41.75
2022-10-18T22:36:34.951Z,41.77
2022-10-18T22:39:06.801Z,42.10
2022-10-18T22:41:37.963Z,42.18
2022-10-18T22:44:08.644Z,42.20
2022-10-18T22:46:41.241Z,41.69
2022-10-18T22:49:11.031Z,41.87
2022-10-18T22:51:41.369Z,41.85
2022-10-18T22:54:11.720Z,41.99
2022-10-18T22:56:42.232Z,42.01
2022-10-18T22:59:12.750Z,42.17
2022-10-18T23:01:44.597Z,41.82
2022-10-18T23:04:14.332Z,41.65
2022-10-18T23:06:44.852Z,41.81
2022-10-18T23:09:15.429Z,41.95
2022-10-18T23:11:47.425Z,42.13
2022-10-18T23:14:17.877Z,42.17
2022-10-18T23:16:50.323Z,41.72
2022-10-18T23:19:20.822Z,42.14
2022-10-18T23:21:50.651Z,41.67
2022-10-18T23:24:20.934Z,41.76
2022-10-18T23:26:51.324Z,41.70
2022-10-18T23:29:21.803Z,42.34
2022-10-18T23:31:54.145Z,42.10
2022-10-18T23:34:24.192Z,41.96
2022-10-18T23:36:54.061Z,41.87
2022-10-18T23:39:23.972Z,42.18
2022-10-18T23:41:54.376Z,41.69
2022-10-18T23:44:24.762Z,42.15
2022-10-18T23:46:56.481Z,41.58
2022-10-18T23:49:26.739Z,42.36
2022-10-18T23:51:57.242Z,42.06
2022-10-18T23:54:27.714Z,42.00
2022-10-18T23:56:58.424Z,42.37
2022-10-18T23:59:28.724Z,42.18
